Terminal Aerodrome Forecast
Issued by NWS

Home | Current Version | Previous Version | Text Only | Print | Product List | Glossary On
Versions: 1 2 3 4 5 6 7 8 9 10 11 12 13 14 15 16
000
FTUS43 KICT 271355 AAA
TAFCNU
TAF AMD
KCNU 271355Z 2714/2812 04010KT P6SM SCT020 BKN250
      TEMPO 2714/2716 BKN012
     FM271900 18014G20KT P6SM VCTS BKN035CB
     FM280300 35017G24KT P6SM VCTS BKN030CB
     FM280600 33009KT P6SM BKN025=

USA.gov is the U.S. government's official web portal to all federal, state and local government web resources and services.